This is the latest recevied weather packets stored in our database for station/object KF7SOJ. If no packets are shown the sender has not sent any weather packets the latest 10 day(s).
| Time | Temp. | Humidity | Pressure | Rain* | Wind** | Luminosity | Snow |
|---|---|---|---|---|---|---|---|
| 1777485708 | 12.78° C | 39% | 937 hPa | 0 mm | - | 249 W/m² | - |
| 1777485403 | 12.78° C | 38% | 936.8 hPa | 0 mm | - | 338 W/m² | - |
| 1777485099 | 12.78° C | 39% | 936.8 hPa | 0 mm | - | 1195 W/m² | - |
| 1777484797 | 12.78° C | 40% | 937 hPa | 0 mm | - | 673 W/m² | - |
| 1777484492 | 11.67° C | 42% | 937 hPa | 0 mm | - | 938 W/m² | - |
| 1777484190 | 12.78° C | 38% | 937.1 hPa | 0 mm | - | 211 W/m² | - |
| 1777483886 | 12.78° C | 40% | 936.9 hPa | 0 mm | - | 995 W/m² | - |
| 1777483582 | 12.78° C | 41% | 937.1 hPa | 0 mm | - | 983 W/m² | - |
| 1777483282 | 11.67° C | 42% | 937 hPa | 0 mm | - | 894 W/m² | - |
| 1777482979 | 12.22° C | 40% | 937 hPa | 0 mm | - | 319 W/m² | - |
| 1777482675 | 12.78° C | 37% | 937 hPa | 0 mm | - | 785 W/m² | - |
| 1777482372 | 12.78° C | 37% | 937 hPa | 0 mm | - | 859 W/m² | - |
| 1777482070 | 12.78° C | 38% | 937.2 hPa | 0 mm | - | 825 W/m² | - |
| 1777481768 | 12.78° C | 40% | 937 hPa | 0 mm | - | 814 W/m² | - |
| 1777481464 | 12.78° C | 39% | 936.8 hPa | 0 mm | - | 190 W/m² | - |
| 1777481160 | 12.78° C | 38% | 937 hPa | 0 mm | - | 813 W/m² | - |
| 1777480857 | 12.78° C | 39% | 937 hPa | 0 mm | - | 791 W/m² | - |
| 1777480554 | 12.78° C | 39% | 937 hPa | 0 mm | - | 784 W/m² | - |
| 1777480251 | 12.78° C | 38% | 937 hPa | 0 mm | - | 773 W/m² | - |
| 1777479947 | 12.22° C | 37% | 936.9 hPa | 0 mm | - | 726 W/m² | - |
| 1777479644 | 11.67° C | 41% | 936.8 hPa | 0 mm | - | 219 W/m² | - |
| 1777479342 | 12.22° C | 37% | 937.1 hPa | 0 mm | - | 710 W/m² | - |
| 1777479038 | 12.22° C | 40% | 936.8 hPa | 0 mm | - | 676 W/m² | - |
| 1777478735 | 12.22° C | 40% | 936.8 hPa | 0 mm | - | 665 W/m² | - |
| 1777478431 | 11.67° C | 43% | 936.8 hPa | 0 mm | - | 637 W/m² | - |
* Rain latest hour (hover to see other rain measurements)
** Current wind speed in m/s (hover to see current wind gust speed)